Time;durP1;ratioP1;P1;durP2;ratioP2;P2;SDS_P1;SDS_P2;PMS_P1;PMS_P2;Temp;Humidity;BMP_temperature;BMP_pressure;BME280_temperature;BME280_humidity;BME280_pressure;Samples;Min_cycle;Max_cycle;Signal;HPM_P1;HPM_P2
2022/01/14 00:00:00;;;;;;;;;17.00;17.00;;;;;;;;5291571;27;8751;-72
2022/01/14 00:02:31;;;;;;;;;9.80;9.60;;;;;;;;5291411;27;12135;-72
2022/01/14 00:05:03;;;;;;;;;8.40;8.40;;;;;;;;5258172;27;8781;-72
2022/01/14 00:07:34;;;;;;;;;13.60;12.60;;;;;;;;5309666;27;8762;-72
2022/01/14 00:10:07;;;;;;;;;15.40;15.40;;;;;;;;5290749;27;8806;-72
2022/01/14 00:12:46;;;;;;;;;13.00;13.00;;;;;;;;5310554;27;9529;-72
2022/01/14 00:15:24;;;;;;;;;12.80;12.60;;;;;;;;5295543;27;8766;-72
2022/01/14 00:17:55;;;;;;;;;7.80;7.80;;;;;;;;5313951;27;8829;-73
2022/01/14 00:20:26;;;;;;;;;7.50;7.50;;;;;;;;5313719;27;9662;-72
2022/01/14 00:22:59;;;;;;;;;8.20;8.20;;;;;;;;5313612;27;9005;-72
2022/01/14 00:31:53;;;;;;;;;11.80;10.40;;;;;;;;5313699;27;8806;-72
2022/01/14 00:34:24;;;;;;;;;10.60;10.60;;;;;;;;5295179;27;8767;-72
2022/01/14 00:37:15;;;;;;;;;10.80;10.80;;;;;;;;5297685;27;8794;-72
2022/01/14 00:39:47;;;;;;;;;10.60;10.60;;;;;;;;5295153;27;8779;-71
2022/01/14 00:42:18;;;;;;;;;11.20;10.20;;;;;;;;5313218;27;8786;-70
2022/01/14 00:45:08;;;;;;;;;10.00;10.00;;;;;;;;5313265;27;8786;-70
2022/01/14 00:47:39;;;;;;;;;16.00;14.20;;;;;;;;5294554;27;8805;-70
2022/01/14 00:50:28;;;;;;;;;15.00;15.00;;;;;;;;5297436;27;8778;-72
2022/01/14 00:53:00;;;;;;;;;21.40;18.00;;;;;;;;5312847;27;8770;-72
2022/01/14 00:55:45;;;;;;;;;13.40;12.60;;;;;;;;5277145;27;8778;-72
2022/01/14 01:01:05;;;;;;;;;9.00;9.00;;;;;;;;5294600;27;8790;-72
2022/01/14 01:03:36;;;;;;;;;11.80;11.80;;;;;;;;5294780;27;8777;-72
2022/01/14 01:06:08;;;;;;;;;16.60;16.60;;;;;;;;5294862;27;8789;-72
2022/01/14 01:08:39;;;;;;;;;18.20;17.60;;;;;;;;5277136;27;8785;-72
2022/01/14 01:11:11;;;;;;;;;10.40;10.00;;;;;;;;5277276;27;8940;-72
2022/01/14 01:13:48;;;;;;;;;18.40;17.60;;;;;;;;5312408;27;8766;-72
2022/01/14 01:16:19;;;;;;;;;26.40;24.80;;;;;;;;5294338;27;8802;-71
2022/01/14 01:18:50;;;;;;;;;8.20;8.20;;;;;;;;5312037;27;8840;-71
2022/01/14 01:21:21;;;;;;;;;13.80;12.80;;;;;;;;5312632;27;8786;-71
2022/01/14 01:23:52;;;;;;;;;10.50;10.00;;;;;;;;5293510;27;8774;-71
2022/01/14 01:26:42;;;;;;;;;7.00;7.00;;;;;;;;5294653;27;8808;-70
2022/01/14 01:31:45;;;;;;;;;7.00;6.20;;;;;;;;5294500;27;8758;-71
2022/01/14 01:34:18;;;;;;;;;6.40;6.40;;;;;;;;5312766;27;8867;-71
2022/01/14 01:36:50;;;;;;;;;9.00;9.00;;;;;;;;5312376;27;8801;-71
2022/01/14 01:39:23;;;;;;;;;12.00;12.00;;;;;;;;5276787;27;8759;-71
2022/01/14 01:41:55;;;;;;;;;6.40;6.40;;;;;;;;5312478;27;8763;-70
2022/01/14 01:44:27;;;;;;;;;9.00;9.00;;;;;;;;5293884;27;8838;-72
2022/01/14 01:46:58;;;;;;;;;9.00;9.00;;;;;;;;5312086;27;8805;-71
2022/01/14 01:49:32;;;;;;;;;12.80;12.60;;;;;;;;5312403;27;8877;-71
2022/01/14 01:52:03;;;;;;;;;10.00;10.00;;;;;;;;5277000;27;8778;-71
2022/01/14 01:54:35;;;;;;;;;9.80;9.80;;;;;;;;5293590;27;8899;-71
2022/01/14 01:57:06;;;;;;;;;9.60;9.60;;;;;;;;5276043;27;8829;-71
2022/01/14 01:59:37;;;;;;;;;12.60;12.60;;;;;;;;5293249;27;8916;-70
2022/01/14 02:02:09;;;;;;;;;9.25;9.25;;;;;;;;5311736;27;8908;-72
2022/01/14 02:04:41;;;;;;;;;9.40;9.40;;;;;;;;5311347;27;10286;-71
2022/01/14 02:07:34;;;;;;;;;6.00;6.00;;;;;;;;5311854;27;8868;-72
2022/01/14 02:10:06;;;;;;;;;9.20;9.00;;;;;;;;5292781;27;9766;-72
2022/01/14 02:12:45;;;;;;;;;6.80;6.80;;;;;;;;5293239;27;8763;-72
2022/01/14 02:16:15;;;;;;;;;8.20;8.20;;;;;;;;5276739;27;8921;-73
2022/01/14 02:18:33;;;;;;;;;7.40;7.00;;;;;;;;5301556;27;8954;-73
2022/01/14 02:26:53;;;;;;;;;11.20;10.40;;;;;;;;5310645;27;8809;-72
2022/01/14 02:29:24;;;;;;;;;6.60;6.60;;;;;;;;5276483;27;8767;-71
2022/01/14 02:31:54;;;;;;;;;10.00;10.00;;;;;;;;5275312;27;8766;-72
2022/01/14 02:34:26;;;;;;;;;4.50;4.50;;;;;;;;5292550;27;8863;-71
2022/01/14 02:36:57;;;;;;;;;7.40;7.40;;;;;;;;5291655;27;11431;-72
2022/01/14 02:39:27;;;;;;;;;7.00;7.00;;;;;;;;5310706;27;8782;-71
2022/01/14 02:41:58;;;;;;;;;9.00;9.00;;;;;;;;5292072;27;8787;-72
2022/01/14 02:44:31;;;;;;;;;8.50;8.50;;;;;;;;5311164;27;9847;-71
2022/01/14 02:47:05;;;;;;;;;10.00;9.00;;;;;;;;5292146;27;8917;-73
2022/01/14 02:49:39;;;;;;;;;13.80;13.80;;;;;;;;5310583;27;8916;-72
2022/01/14 02:53:24;;;;;;;;;12.60;10.60;;;;;;;;5277954;27;8742;-72
2022/01/14 02:55:22;;;;;;;;;9.80;9.20;;;;;;;;5295548;27;8793;-73
2022/01/14 02:57:53;;;;;;;;;11.80;11.80;;;;;;;;5311460;27;8794;-71
2022/01/14 03:00:31;;;;;;;;;3.80;3.60;;;;;;;;5310177;27;8751;-71
2022/01/14 03:03:04;;;;;;;;;20.00;18.60;;;;;;;;5310961;27;8811;-70
2022/01/14 03:10:06;;;;;;;;;12.80;12.80;;;;;;;;5308999;27;8809;-71
2022/01/14 03:12:38;;;;;;;;;13.60;13.60;;;;;;;;5240913;27;8747;-71
2022/01/14 03:15:27;;;;;;;;;19.40;18.40;;;;;;;;5310199;27;8762;-71
2022/01/14 03:17:58;;;;;;;;;22.75;21.00;;;;;;;;5309413;27;8794;-72
2022/01/14 03:23:07;;;;;;;;;10.60;10.60;;;;;;;;5291991;27;8796;-71
2022/01/14 03:25:51;;;;;;;;;15.60;15.60;;;;;;;;5309220;27;8852;-71
2022/01/14 03:28:23;;;;;;;;;12.40;12.40;;;;;;;;5290825;27;8884;-70
2022/01/14 03:30:54;;;;;;;;;11.60;11.20;;;;;;;;5291460;27;8771;-71
2022/01/14 03:33:24;;;;;;;;;13.75;13.75;;;;;;;;5309400;27;8775;-72
2022/01/14 03:35:55;;;;;;;;;14.50;14.50;;;;;;;;5273419;27;10543;-72
2022/01/14 03:38:27;;;;;;;;;23.60;20.80;;;;;;;;5274325;27;8821;-73
2022/01/14 03:40:58;;;;;;;;;12.20;11.60;;;;;;;;5292258;27;8773;-73
2022/01/14 03:43:29;;;;;;;;;14.00;14.00;;;;;;;;5257584;27;8758;-73
2022/01/14 03:46:00;;;;;;;;;9.60;9.60;;;;;;;;5308941;27;8787;-73
2022/01/14 03:48:31;;;;;;;;;6.60;6.60;;;;;;;;5290942;27;8786;-73
2022/01/14 03:51:03;;;;;;;;;11.50;11.50;;;;;;;;5290281;27;8778;-72
2022/01/14 03:53:34;;;;;;;;;7.80;7.80;;;;;;;;5309029;27;8892;-71
2022/01/14 03:56:05;;;;;;;;;10.00;10.00;;;;;;;;5309290;27;8920;-72
2022/01/14 03:58:36;;;;;;;;;6.80;6.40;;;;;;;;5308929;27;8810;-72
2022/01/14 04:01:08;;;;;;;;;8.80;8.80;;;;;;;;5290599;27;9485;-72
2022/01/14 04:03:40;;;;;;;;;1.00;1.00;;;;;;;;5290188;27;8801;-71
2022/01/14 04:06:11;;;;;;;;;4.20;3.60;;;;;;;;5290400;27;8770;-71
2022/01/14 04:08:42;;;;;;;;;12.60;11.40;;;;;;;;5290980;27;8767;-72
2022/01/14 04:11:13;;;;;;;;;22.40;21.60;;;;;;;;5290808;27;9461;-71
2022/01/14 04:13:48;;;;;;;;;22.20;22.20;;;;;;;;5290919;27;8778;-70
2022/01/14 04:16:20;;;;;;;;;25.80;25.20;;;;;;;;5273141;27;8790;-69
2022/01/14 04:18:51;;;;;;;;;27.00;26.20;;;;;;;;5308911;27;8771;-70
2022/01/14 04:21:22;;;;;;;;;10.40;10.40;;;;;;;;5257739;27;8778;-71
2022/01/14 04:23:52;;;;;;;;;12.75;12.00;;;;;;;;5290158;27;8792;-70
2022/01/14 04:26:23;;;;;;;;;9.50;8.75;;;;;;;;5289824;27;8782;-69
2022/01/14 04:28:55;;;;;;;;;9.60;9.00;;;;;;;;5272933;27;8778;-71
2022/01/14 04:31:26;;;;;;;;;11.60;9.60;;;;;;;;5291683;27;8890;-71
2022/01/14 04:33:57;;;;;;;;;7.00;6.75;;;;;;;;5289844;27;8778;-71
2022/01/14 04:36:27;;;;;;;;;10.00;10.00;;;;;;;;5309253;27;8806;-72
2022/01/14 04:38:58;;;;;;;;;10.25;9.75;;;;;;;;5273679;27;8790;-72
2022/01/14 04:41:31;;;;;;;;;9.75;9.75;;;;;;;;5308808;27;8770;-72
2022/01/14 04:44:02;;;;;;;;;13.40;13.40;;;;;;;;5291146;27;11033;-71
2022/01/14 04:46:59;;;;;;;;;14.20;9.20;;;;;;;;5308642;27;8830;-72
2022/01/14 04:49:27;;;;;;;;;15.40;15.40;;;;;;;;5309319;27;8802;-71
2022/01/14 04:51:57;;;;;;;;;12.25;11.50;;;;;;;;5289723;27;8809;-73
2022/01/14 04:54:29;;;;;;;;;14.00;12.75;;;;;;;;5308759;27;8817;-74
2022/01/14 04:57:00;;;;;;;;;13.40;12.20;;;;;;;;5289867;27;10506;-73
2022/01/14 04:59:31;;;;;;;;;12.60;12.60;;;;;;;;5257798;27;8843;-70
2022/01/14 05:06:28;;;;;;;;;18.00;15.40;;;;;;;;5312533;27;8745;-73
2022/01/14 05:08:59;;;;;;;;;11.20;10.00;;;;;;;;5293248;27;8767;-73
2022/01/14 05:11:39;;;;;;;;;68.60;54.60;;;;;;;;5312126;27;8830;-72
2022/01/14 05:14:10;;;;;;;;;16.00;15.40;;;;;;;;5277326;27;9465;-72
2022/01/14 05:17:00;;;;;;;;;15.00;12.60;;;;;;;;5312290;27;8790;-72
2022/01/14 05:19:31;;;;;;;;;13.80;12.60;;;;;;;;5294275;27;8782;-73
2022/01/14 05:22:02;;;;;;;;;21.00;21.00;;;;;;;;5276912;27;8766;-75
2022/01/14 05:24:33;;;;;;;;;39.60;33.60;;;;;;;;5311966;27;8869;-77
2022/01/14 05:31:43;;;;;;;;;20.20;19.80;;;;;;;;5311862;27;8738;-72
2022/01/14 05:34:15;;;;;;;;;19.60;19.00;;;;;;;;5276927;27;8765;-70
2022/01/14 05:36:45;;;;;;;;;25.80;22.40;;;;;;;;5293661;27;8794;-70
2022/01/14 05:39:20;;;;;;;;;20.00;20.00;;;;;;;;5293774;27;8794;-69
2022/01/14 05:41:51;;;;;;;;;21.60;15.80;;;;;;;;5312481;27;8881;-72
2022/01/14 05:44:26;;;;;;;;;13.40;13.40;;;;;;;;5293997;27;8778;-72
2022/01/14 05:46:58;;;;;;;;;22.40;22.40;;;;;;;;5293697;27;8786;-74
2022/01/14 05:54:10;;;;;;;;;9.00;9.00;;;;;;;;5311454;27;8742;-74
2022/01/14 05:56:41;;;;;;;;;11.75;11.75;;;;;;;;5293729;27;8798;-75
2022/01/14 05:59:12;;;;;;;;;15.25;12.75;;;;;;;;5312066;27;8778;-76
2022/01/14 06:01:43;;;;;;;;;9.75;9.75;;;;;;;;5293362;27;8763;-75
2022/01/14 06:04:14;;;;;;;;;12.00;12.00;;;;;;;;5293670;27;9537;-75
2022/01/14 06:06:44;;;;;;;;;7.00;7.00;;;;;;;;5312068;27;8851;-67
2022/01/14 06:13:50;;;;;;;;;84.50;64.75;;;;;;;;5310252;27;8885;-70
2022/01/14 06:16:21;;;;;;;;;12.25;10.00;;;;;;;;5311003;27;8897;-71
2022/01/14 06:18:52;;;;;;;;;12.75;11.50;;;;;;;;5310990;27;8766;-72
2022/01/14 06:21:23;;;;;;;;;15.25;15.25;;;;;;;;5292484;27;8770;-72
2022/01/14 06:23:54;;;;;;;;;18.25;17.50;;;;;;;;5311168;27;8755;-72
2022/01/14 06:26:25;;;;;;;;;21.20;21.20;;;;;;;;5310745;27;8788;-72
2022/01/14 06:28:55;;;;;;;;;22.00;22.00;;;;;;;;5292747;27;8849;-72
2022/01/14 06:31:27;;;;;;;;;21.50;21.50;;;;;;;;5292313;27;8805;-72
2022/01/14 06:33:58;;;;;;;;;38.00;37.20;;;;;;;;5311359;27;8850;-72
2022/01/14 06:36:28;;;;;;;;;33.75;32.50;;;;;;;;5311549;27;8794;-71
2022/01/14 06:38:59;;;;;;;;;33.25;32.00;;;;;;;;5311476;27;8770;-70
2022/01/14 06:41:30;;;;;;;;;26.00;26.00;;;;;;;;5311231;27;8774;-70
2022/01/14 06:44:01;;;;;;;;;23.25;22.25;;;;;;;;5311196;27;8773;-71
2022/01/14 06:46:32;;;;;;;;;18.50;16.50;;;;;;;;5275342;27;8783;-72
2022/01/14 06:49:03;;;;;;;;;7.00;7.00;;;;;;;;5310938;27;8801;-70
2022/01/14 06:51:33;;;;;;;;;14.50;14.50;;;;;;;;5310724;27;8746;-71
2022/01/14 06:54:05;;;;;;;;;25.60;24.00;;;;;;;;5291819;27;8763;-70
2022/01/14 06:56:38;;;;;;;;;19.00;18.75;;;;;;;;5310892;27;8802;-69
2022/01/14 07:03:32;;;;;;;;;20.00;19.80;;;;;;;;5330662;27;8831;-70
2022/01/14 07:06:03;;;;;;;;;18.50;18.50;;;;;;;;5307043;27;8936;-68
2022/01/14 07:08:34;;;;;;;;;12.50;12.00;;;;;;;;5301136;27;8801;-69
2022/01/14 07:11:04;;;;;;;;;12.00;10.50;;;;;;;;5291631;27;8797;-69
2022/01/14 07:13:35;;;;;;;;;15.00;14.00;;;;;;;;5294039;27;11483;-70
2022/01/14 07:16:06;;;;;;;;;16.50;15.75;;;;;;;;5288316;28;8855;-70
2022/01/14 07:18:37;;;;;;;;;13.20;11.60;;;;;;;;5288304;28;8784;-69
2022/01/14 07:21:08;;;;;;;;;5.50;5.50;;;;;;;;5269762;28;8803;-70
2022/01/14 07:23:57;;;;;;;;;12.60;12.60;;;;;;;;5272994;28;8827;-70
2022/01/14 07:26:28;;;;;;;;;10.80;10.40;;;;;;;;5269955;28;8799;-70
2022/01/14 07:28:59;;;;;;;;;79.33;60.67;;;;;;;;5270819;28;8777;-70
2022/01/14 07:31:31;;;;;;;;;14.60;13.00;;;;;;;;5288613;28;8785;-69
2022/01/14 07:34:02;;;;;;;;;9.60;9.60;;;;;;;;5287905;28;8768;-70
2022/01/14 07:36:33;;;;;;;;;8.20;8.20;;;;;;;;5270539;28;8818;-69
2022/01/14 07:39:06;;;;;;;;;8.00;8.00;;;;;;;;5270048;28;8776;-69
2022/01/14 07:41:37;;;;;;;;;10.00;10.00;;;;;;;;5253138;28;11478;-70
2022/01/14 07:44:08;;;;;;;;;12.00;12.00;;;;;;;;5287973;28;8899;-70
2022/01/14 07:46:40;;;;;;;;;14.80;14.80;;;;;;;;5287844;28;11458;-69
2022/01/14 07:49:11;;;;;;;;;15.60;15.00;;;;;;;;5287530;28;8792;-69
2022/01/14 07:51:42;;;;;;;;;12.80;12.80;;;;;;;;5287082;28;8868;-70
2022/01/14 08:03:13;;;;;;;;;105.50;79.25;;;;;;;;5287641;28;9448;-69
2022/01/14 08:05:45;;;;;;;;;3.00;3.00;;;;;;;;5287412;28;8776;-69
2022/01/14 08:08:15;;;;;;;;;10.80;10.80;;;;;;;;5269273;28;8792;-69
2022/01/14 08:19:57;;;;;;;;;9.20;9.20;;;;;;;;5287667;28;8764;-70
2022/01/14 08:22:28;;;;;;;;;11.00;9.50;;;;;;;;5287760;28;8866;-69
2022/01/14 08:29:24;;;;;;;;;9.60;9.00;;;;;;;;5287065;28;8740;-70
2022/01/14 08:31:56;;;;;;;;;7.80;7.00;;;;;;;;5288225;28;8883;-69
2022/01/14 08:34:27;;;;;;;;;6.00;6.00;;;;;;;;5290361;28;8789;-69
2022/01/14 08:36:58;;;;;;;;;12.00;12.00;;;;;;;;5291024;28;8887;-69
2022/01/14 08:39:29;;;;;;;;;12.50;12.25;;;;;;;;5292540;28;8777;-71
2022/01/14 08:42:00;;;;;;;;;12.00;12.00;;;;;;;;5290907;28;12118;-71
2022/01/14 08:44:31;;;;;;;;;10.00;9.00;;;;;;;;5290969;28;8789;-69
2022/01/14 08:47:02;;;;;;;;;16.40;16.00;;;;;;;;5291353;28;8793;-69
2022/01/14 08:49:51;;;;;;;;;16.80;12.60;;;;;;;;5292171;28;8748;-69
2022/01/14 08:52:22;;;;;;;;;10.50;10.50;;;;;;;;5291777;28;8791;-69
2022/01/14 08:54:53;;;;;;;;;7.50;7.50;;;;;;;;5291973;28;8776;-68
2022/01/14 08:57:24;;;;;;;;;16.25;16.25;;;;;;;;5290951;28;8793;-68
2022/01/14 08:59:54;;;;;;;;;14.00;14.00;;;;;;;;5291260;28;8773;-69
2022/01/14 09:02:25;;;;;;;;;14.00;13.50;;;;;;;;5291224;28;8784;-68
2022/01/14 09:09:19;;;;;;;;;15.20;13.80;;;;;;;;5291215;28;8720;-68
2022/01/14 09:11:50;;;;;;;;;9.25;9.25;;;;;;;;5290392;28;9471;-69
2022/01/14 09:14:22;;;;;;;;;15.25;14.50;;;;;;;;5285259;27;9492;-68
2022/01/14 09:16:52;;;;;;;;;13.80;13.40;;;;;;;;5312668;27;8790;-68
2022/01/14 09:19:23;;;;;;;;;11.00;9.75;;;;;;;;5311926;27;9426;-70
2022/01/14 09:21:54;;;;;;;;;19.20;18.80;;;;;;;;5312137;27;9493;-70
2022/01/14 09:24:25;;;;;;;;;16.75;16.75;;;;;;;;5312117;27;8762;-69
2022/01/14 09:26:58;;;;;;;;;12.80;12.60;;;;;;;;5294162;27;8777;-70
2022/01/14 09:29:29;;;;;;;;;14.00;12.75;;;;;;;;5312090;27;8766;-71
2022/01/14 09:32:00;;;;;;;;;7.75;7.75;;;;;;;;5276801;27;8789;-71
2022/01/14 09:38:57;;;;;;;;;21.60;21.20;;;;;;;;5311968;27;8756;-70
2022/01/14 09:41:29;;;;;;;;;7.00;7.00;;;;;;;;5312425;27;8776;-71
2022/01/14 09:44:01;;;;;;;;;20.00;19.00;;;;;;;;5293711;27;8779;-71
2022/01/14 09:46:32;;;;;;;;;17.80;15.60;;;;;;;;5311944;27;8790;-70
2022/01/14 09:49:02;;;;;;;;;17.00;15.50;;;;;;;;5312179;27;8756;-70
2022/01/14 09:51:33;;;;;;;;;11.00;9.75;;;;;;;;5311883;27;8748;-69
2022/01/14 09:54:06;;;;;;;;;12.50;12.00;;;;;;;;5311404;27;11442;-69
2022/01/14 09:56:55;;;;;;;;;19.40;17.60;;;;;;;;5311437;27;8811;-69
2022/01/14 09:59:45;;;;;;;;;11.60;11.60;;;;;;;;5293627;27;8744;-69
2022/01/14 10:02:51;;;;;;;;;6.20;6.20;;;;;;;;5311170;27;8882;-70
2022/01/14 10:05:39;;;;;;;;;18.00;16.00;;;;;;;;5240580;27;8925;-69
2022/01/14 10:08:28;;;;;;;;;11.20;11.20;;;;;;;;5310914;27;8781;-69
2022/01/14 10:15:23;;;;;;;;;23.60;22.80;;;;;;;;5311303;27;10712;-69
2022/01/14 10:17:59;;;;;;;;;23.00;21.75;;;;;;;;5311195;27;8802;-69
2022/01/14 10:20:36;;;;;;;;;21.60;18.80;;;;;;;;5311833;27;8889;-68
2022/01/14 10:23:07;;;;;;;;;22.80;21.20;;;;;;;;5293526;27;9193;-69
2022/01/14 10:25:38;;;;;;;;;34.00;31.50;;;;;;;;5310604;27;8916;-69
2022/01/14 10:32:46;;;;;;;;;15.40;15.40;;;;;;;;5311066;27;8908;-66
2022/01/14 10:35:18;;;;;;;;;10.40;10.00;;;;;;;;5310548;27;8792;-68
2022/01/14 10:37:49;;;;;;;;;14.80;14.60;;;;;;;;5310709;27;8790;-68
2022/01/14 10:44:43;;;;;;;;;12.60;12.00;;;;;;;;5310487;27;8766;-68
2022/01/14 10:47:15;;;;;;;;;15.80;15.40;;;;;;;;5310926;27;8789;-68
2022/01/14 10:49:47;;;;;;;;;11.20;11.20;;;;;;;;5310812;27;8750;-68
2022/01/14 10:52:22;;;;;;;;;13.00;13.00;;;;;;;;5310614;27;8798;-68
2022/01/14 10:54:55;;;;;;;;;24.80;24.60;;;;;;;;5310467;27;8766;-68
2022/01/14 10:57:29;;;;;;;;;14.60;14.60;;;;;;;;5309120;27;8782;-68
2022/01/14 11:00:18;;;;;;;;;13.40;13.40;;;;;;;;5309484;27;8905;-66
2022/01/14 11:02:49;;;;;;;;;43.40;35.60;;;;;;;;5309753;27;8896;-81
2022/01/14 11:05:38;;;;;;;;;14.20;13.80;;;;;;;;5277065;27;8862;-68
2022/01/14 11:12:32;;;;;;;;;5.60;5.60;;;;;;;;5309766;27;8706;-67
2022/01/14 11:15:02;;;;;;;;;12.00;12.00;;;;;;;;5310407;27;8810;-67
2022/01/14 11:17:37;;;;;;;;;7.80;7.00;;;;;;;;5310455;27;8817;-67
2022/01/14 11:20:09;;;;;;;;;13.40;13.40;;;;;;;;5291392;27;8793;-68
2022/01/14 11:25:29;;;;;;;;;19.40;19.40;;;;;;;;5291584;27;8753;-68
2022/01/14 11:28:00;;;;;;;;;17.50;16.50;;;;;;;;5309723;27;8794;-67
2022/01/14 11:30:37;;;;;;;;;14.20;13.40;;;;;;;;5283322;28;8792;-67
2022/01/14 11:33:09;;;;;;;;;12.00;12.00;;;;;;;;5305972;27;8782;-68
2022/01/14 11:40:16;;;;;;;;;20.60;19.40;;;;;;;;5309133;27;8770;-67
2022/01/14 11:42:50;;;;;;;;;30.40;27.80;;;;;;;;5309402;27;9460;-67
2022/01/14 11:45:41;;;;;;;;;35.00;34.00;;;;;;;;5309267;27;9520;-67
2022/01/14 11:48:32;;;;;;;;;32.40;27.00;;;;;;;;5309369;27;8774;-67
2022/01/14 11:51:04;;;;;;;;;44.80;40.20;;;;;;;;5309257;27;8797;-67
2022/01/14 11:53:40;;;;;;;;;33.40;31.00;;;;;;;;5290804;27;8778;-67
2022/01/14 11:56:29;;;;;;;;;37.60;36.60;;;;;;;;5308859;27;8782;-67
2022/01/14 11:59:20;;;;;;;;;18.00;17.60;;;;;;;;5290790;27;8762;-67
2022/01/14 12:01:52;;;;;;;;;24.80;24.80;;;;;;;;5291722;27;8813;-68
2022/01/14 12:04:43;;;;;;;;;87.25;70.00;;;;;;;;5290538;27;8789;-67
2022/01/14 12:07:16;;;;;;;;;38.40;36.60;;;;;;;;5282323;27;9476;-67
2022/01/14 12:10:07;;;;;;;;;19.80;19.80;;;;;;;;5292131;28;8788;-67
2022/01/14 12:17:10;;;;;;;;;16.00;16.00;;;;;;;;5285160;28;8873;-68
2022/01/14 12:19:41;;;;;;;;;15.20;15.20;;;;;;;;5273779;28;8766;-67
2022/01/14 12:26:36;;;;;;;;;22.40;22.40;;;;;;;;5312694;27;8712;-67
2022/01/14 12:29:11;;;;;;;;;10.00;10.00;;;;;;;;5294879;27;8878;-67
2022/01/14 12:32:00;;;;;;;;;20.60;19.60;;;;;;;;5313530;27;8740;-67
2022/01/14 12:34:32;;;;;;;;;17.00;17.00;;;;;;;;5313035;27;8744;-68
2022/01/14 12:37:04;;;;;;;;;25.60;24.80;;;;;;;;5312309;27;8795;-65
2022/01/14 12:39:35;;;;;;;;;18.80;18.60;;;;;;;;5277208;27;8776;-68
2022/01/14 12:42:06;;;;;;;;;21.80;20.40;;;;;;;;5295293;27;9463;-69
2022/01/14 12:44:40;;;;;;;;;27.40;27.40;;;;;;;;5312474;27;8783;-68
2022/01/14 12:47:19;;;;;;;;;23.60;22.40;;;;;;;;5313276;27;8871;-68
2022/01/14 12:49:50;;;;;;;;;29.00;27.00;;;;;;;;5313347;27;8875;-68
2022/01/14 12:52:37;;;;;;;;;33.00;29.80;;;;;;;;5277097;27;8783;-68
2022/01/14 12:55:09;;;;;;;;;32.80;29.80;;;;;;;;5320397;27;8766;-68
2022/01/14 12:57:40;;;;;;;;;25.80;24.40;;;;;;;;5333622;27;8796;-68
2022/01/14 13:00:13;;;;;;;;;31.20;27.40;;;;;;;;5298667;27;8777;-67
2022/01/14 13:02:44;;;;;;;;;30.80;29.60;;;;;;;;5297999;27;8774;-68
2022/01/14 13:05:19;;;;;;;;;22.60;22.60;;;;;;;;5333897;27;9424;-69
2022/01/14 13:07:50;;;;;;;;;24.60;24.60;;;;;;;;5314815;27;8804;-68
2022/01/14 13:10:23;;;;;;;;;23.50;23.50;;;;;;;;5334121;27;8787;-68
2022/01/14 13:12:54;;;;;;;;;24.40;23.60;;;;;;;;5333422;27;11383;-68
2022/01/14 13:15:26;;;;;;;;;28.00;26.40;;;;;;;;5314940;27;8808;-68
2022/01/14 13:18:03;;;;;;;;;107.25;82.50;;;;;;;;5333763;27;8833;-68
2022/01/14 13:20:34;;;;;;;;;32.20;31.40;;;;;;;;5332853;27;9626;-68
2022/01/14 13:23:07;;;;;;;;;32.60;30.00;;;;;;;;5333453;27;8775;-68
2022/01/14 13:25:38;;;;;;;;;20.80;20.80;;;;;;;;5333453;27;9592;-68
2022/01/14 13:28:10;;;;;;;;;33.60;32.20;;;;;;;;5333309;27;8780;-68
2022/01/14 13:30:43;;;;;;;;;34.20;33.00;;;;;;;;5333810;27;8797;-68
2022/01/14 13:33:15;;;;;;;;;21.60;21.60;;;;;;;;5333045;27;8760;-68
2022/01/14 13:35:47;;;;;;;;;27.00;25.60;;;;;;;;5333360;27;8776;-68
2022/01/14 13:38:36;;;;;;;;;31.80;31.80;;;;;;;;5332543;27;8788;-68
2022/01/14 13:41:08;;;;;;;;;32.75;29.75;;;;;;;;5333318;27;8815;-68
2022/01/14 13:43:39;;;;;;;;;30.20;29.60;;;;;;;;5314475;27;11414;-68
2022/01/14 13:46:33;;;;;;;;;28.00;28.00;;;;;;;;5333289;27;8786;-68
2022/01/14 13:49:06;;;;;;;;;49.80;44.60;;;;;;;;5332913;27;8915;-68
2022/01/14 13:51:38;;;;;;;;;39.80;36.00;;;;;;;;5332783;27;8776;-68
2022/01/14 13:54:11;;;;;;;;;47.60;44.60;;;;;;;;5333013;27;8787;-68
2022/01/14 13:56:42;;;;;;;;;37.00;33.60;;;;;;;;5314543;27;8756;-68
2022/01/14 13:59:19;;;;;;;;;31.20;29.20;;;;;;;;5314597;27;8768;-67
2022/01/14 14:02:10;;;;;;;;;43.20;42.00;;;;;;;;5299673;27;8780;-68
2022/01/14 14:04:45;;;;;;;;;31.60;30.20;;;;;;;;5332991;27;8760;-67
2022/01/14 14:07:19;;;;;;;;;38.80;36.40;;;;;;;;5333101;27;8895;-66
2022/01/14 14:10:47;;;;;;;;;34.20;33.60;;;;;;;;5332810;27;9528;-68
2022/01/14 14:13:18;;;;;;;;;25.00;14.20;;;;;;;;5283688;27;8881;-68
2022/01/14 14:15:50;;;;;;;;;37.80;36.40;;;;;;;;5298038;27;8821;-68
2022/01/14 14:18:23;;;;;;;;;9.40;9.20;;;;;;;;5311226;27;8790;-65
2022/01/14 14:20:54;;;;;;;;;28.00;27.60;;;;;;;;5293132;27;8835;-69
2022/01/14 14:23:27;;;;;;;;;25.20;25.20;;;;;;;;5310593;27;8762;-69
2022/01/14 14:26:00;;;;;;;;;36.20;33.60;;;;;;;;5293461;27;8785;-68
2022/01/14 14:28:49;;;;;;;;;28.80;28.60;;;;;;;;5311112;27;8763;-68
2022/01/14 14:31:27;;;;;;;;;19.25;19.25;;;;;;;;5293258;27;8774;-68
2022/01/14 14:33:58;;;;;;;;;28.20;26.20;;;;;;;;5292392;27;8773;-68
2022/01/14 14:36:30;;;;;;;;;35.20;34.40;;;;;;;;5292114;27;8762;-68
2022/01/14 14:39:01;;;;;;;;;45.80;43.40;;;;;;;;5292014;27;8746;-68
2022/01/14 14:41:33;;;;;;;;;30.20;30.20;;;;;;;;5309984;27;8777;-68
2022/01/14 14:44:04;;;;;;;;;22.80;22.80;;;;;;;;5310951;27;8758;-68
2022/01/14 14:46:35;;;;;;;;;36.20;34.40;;;;;;;;5310449;27;8786;-68
2022/01/14 14:49:24;;;;;;;;;33.80;29.00;;;;;;;;5311098;27;8766;-68
2022/01/14 14:56:17;;;;;;;;;39.80;34.40;;;;;;;;5310242;27;8743;-70
2022/01/14 14:58:48;;;;;;;;;34.25;33.75;;;;;;;;5274949;27;8821;-73
2022/01/14 15:01:18;;;;;;;;;28.25;28.00;;;;;;;;5310097;27;8876;-73
2022/01/14 15:03:49;;;;;;;;;32.00;32.00;;;;;;;;5274826;27;8790;-71
2022/01/14 15:06:20;;;;;;;;;34.00;32.50;;;;;;;;5291709;27;8773;-69
2022/01/14 15:09:10;;;;;;;;;29.40;27.20;;;;;;;;5291948;27;8762;-69
2022/01/14 15:11:41;;;;;;;;;17.75;16.25;;;;;;;;5292307;27;9512;-68
2022/01/14 15:14:12;;;;;;;;;57.00;50.00;;;;;;;;5274961;27;8766;-68
2022/01/14 15:19:38;;;;;;;;;30.40;29.40;;;;;;;;5310893;27;8767;-69
2022/01/14 15:22:09;;;;;;;;;29.40;27.60;;;;;;;;5310739;27;8778;-69
2022/01/14 15:24:40;;;;;;;;;21.00;21.00;;;;;;;;5309966;27;8871;-68
2022/01/14 15:27:11;;;;;;;;;24.25;23.00;;;;;;;;5274798;27;9515;-68
2022/01/14 15:29:44;;;;;;;;;21.25;18.50;;;;;;;;5309992;27;8783;-68
2022/01/14 15:32:15;;;;;;;;;35.40;32.20;;;;;;;;5310713;27;8855;-68
2022/01/14 15:34:46;;;;;;;;;86.67;66.33;;;;;;;;5310109;27;8782;-70
2022/01/14 15:37:17;;;;;;;;;28.25;26.50;;;;;;;;5291738;27;10441;-70
2022/01/14 15:39:47;;;;;;;;;30.50;27.25;;;;;;;;5291889;27;8828;-68
2022/01/14 15:42:18;;;;;;;;;30.50;29.25;;;;;;;;5309551;27;8794;-68
2022/01/14 15:44:49;;;;;;;;;21.25;20.00;;;;;;;;5310162;27;8795;-69
2022/01/14 15:47:20;;;;;;;;;11.50;11.00;;;;;;;;5275602;27;8783;-69
2022/01/14 15:49:51;;;;;;;;;19.00;19.00;;;;;;;;5279197;27;8886;-68
2022/01/14 15:52:40;;;;;;;;;21.00;19.80;;;;;;;;5294000;27;8759;-68
2022/01/14 15:55:11;;;;;;;;;21.25;20.75;;;;;;;;5278993;28;8921;-68
2022/01/14 15:57:42;;;;;;;;;22.80;22.00;;;;;;;;5253166;28;8814;-69
2022/01/14 16:00:14;;;;;;;;;26.75;26.75;;;;;;;;5301162;27;8782;-69
2022/01/14 16:02:45;;;;;;;;;22.60;22.60;;;;;;;;5274039;27;8801;-70
2022/01/14 16:05:16;;;;;;;;;21.60;21.20;;;;;;;;5309456;27;8898;-69
2022/01/14 16:07:47;;;;;;;;;24.50;24.00;;;;;;;;5309351;27;8917;-70
2022/01/14 16:10:18;;;;;;;;;23.00;23.00;;;;;;;;5290835;27;8895;-69
2022/01/14 16:12:50;;;;;;;;;25.40;25.40;;;;;;;;5263325;28;8822;-70
2022/01/14 16:15:21;;;;;;;;;22.00;21.20;;;;;;;;5259104;28;8776;-70
2022/01/14 16:17:53;;;;;;;;;29.20;29.20;;;;;;;;5269015;28;8843;-71
2022/01/14 16:20:25;;;;;;;;;21.00;19.40;;;;;;;;5269592;28;8785;-69
2022/01/14 16:22:55;;;;;;;;;16.00;13.40;;;;;;;;5287725;28;8776;-68
2022/01/14 16:25:28;;;;;;;;;22.50;22.00;;;;;;;;5269470;28;8838;-70
2022/01/14 16:28:18;;;;;;;;;21.00;19.80;;;;;;;;5288237;28;8805;-69
2022/01/14 16:30:54;;;;;;;;;17.80;15.20;;;;;;;;5287933;28;8793;-69
2022/01/14 16:33:30;;;;;;;;;21.80;21.20;;;;;;;;5287643;28;8792;-70
2022/01/14 16:36:22;;;;;;;;;27.60;26.20;;;;;;;;5287688;28;8909;-70
2022/01/14 16:38:53;;;;;;;;;26.00;25.60;;;;;;;;5269304;28;8793;-70
2022/01/14 16:41:24;;;;;;;;;14.00;13.25;;;;;;;;5287608;28;8787;-70
2022/01/14 16:43:58;;;;;;;;;24.50;24.50;;;;;;;;5288066;28;8901;-70
2022/01/14 16:46:28;;;;;;;;;31.80;31.00;;;;;;;;5286793;28;8838;-69
2022/01/14 16:48:59;;;;;;;;;36.25;36.25;;;;;;;;5270260;28;8792;-69
2022/01/14 16:51:33;;;;;;;;;36.25;29.25;;;;;;;;5269681;28;8780;-69
2022/01/14 16:54:04;;;;;;;;;37.00;37.00;;;;;;;;5253003;28;9440;-70
2022/01/14 16:56:35;;;;;;;;;37.75;34.25;;;;;;;;5256495;28;8817;-70
2022/01/14 16:59:05;;;;;;;;;38.50;37.00;;;;;;;;5291833;28;8785;-70
2022/01/14 17:01:36;;;;;;;;;31.00;31.00;;;;;;;;5292125;28;8875;-69
2022/01/14 17:04:07;;;;;;;;;25.25;24.00;;;;;;;;5276202;27;8796;-69
2022/01/14 17:06:38;;;;;;;;;38.00;30.50;;;;;;;;5260534;28;8924;-69
2022/01/14 17:09:09;;;;;;;;;27.00;27.00;;;;;;;;5291160;28;8792;-69
2022/01/14 17:11:40;;;;;;;;;33.00;32.20;;;;;;;;5272808;28;8784;-69